Lady Dee — PCPI — position and weather

sailwx.info

Track history (hours):
 
Tides and Currents Weather Stations Pressure Air Temp Water Temp Dewpoint Dewpoint Depression Visibility Wind Speed Wind Dir Waves Ship Positions

Lady Dee

Last reported at 2017-Sep-24 19:00 UTC. Time now 2017-Sep-24 19:29 UTC.
Position N 37°56' E 023°41'.

Length 47 m; draft 3.1 m.

Type: Pleasure craft. MMSI: 244814000.

Date/timePositionNaut miles runAvg speedWind from/ knotsBaromVisibWave heightAir tempDewpointWater temp
2017-Sep-24 19:00N 37°56' E 023°41'0 0.0
2017-Sep-24 18:31N 37°56' E 023°41'0 0.0
2017-Sep-24 18:01N 37°56' E 023°41'0 0.0
2017-Sep-24 17:31N 37°56' E 023°41'0 0.0
2017-Sep-24 17:00N 37°56' E 023°41'0 0.0
2017-Sep-24 16:30N 37°56' E 023°41'0 0.0
2017-Sep-24 16:00N 37°56' E 023°41'0 0.0
2017-Sep-24 15:30N 37°56' E 023°41'0 0.0
2017-Sep-24 15:01N 37°56' E 023°41'0 0.0
2017-Sep-24 14:30N 37°56' E 023°41'0 0.0
2017-Sep-24 14:00N 37°56' E 023°41'0 0.0
2017-Sep-24 13:31N 37°56' E 023°41'0 0.0
2017-Sep-24 13:00N 37°56' E 023°41'2 3.7
2017-Sep-24 12:30N 37°55' E 023°39'612.9
2017-Sep-24 12:01N 37°51' E 023°32'714.0
2017-Sep-24 11:31N 37°47' E 023°26'713.8
2017-Sep-24 11:00N 37°42' E 023°19'1 1.2
2017-Sep-24 10:07N 37°41' E 023°19'0 0.0
2017-Sep-24 09:51N 37°41' E 023°19'0 0.0
2017-Sep-24 09:22N 37°41' E 023°19'0 0.0
2017-Sep-24 08:35N 37°41' E 023°19'0 0.0
2017-Sep-24 08:29N 37°41' E 023°19'0 0.1
2017-Sep-24 07:54N 37°41' E 023°19'512.2
2017-Sep-24 07:30N 37°38' E 023°25'713.5
2017-Sep-24 07:01N 37°32' E 023°25'2 3.8
2017-Sep-24 06:29N 37°30' E 023°27'  
2017-Sep-21 06:05N 37°20' E 024°45'113.7
2017-Sep-21 06:01N 37°21' E 024°46'713.8
2017-Sep-21 05:31N 37°22' E 024°55'5 9.3
2017-Sep-21 05:00N 37°26' E 024°57'0 0.5
2017-Sep-21 04:30N 37°26' E 024°57'0 0.0
2017-Sep-21 04:00N 37°26' E 024°57'0 0.0
2017-Sep-21 03:27N 37°26' E 024°57'0 0.0
2017-Sep-21 03:00N 37°26' E 024°57'0 0.0
2017-Sep-21 02:30N 37°26' E 024°57'0 0.0
2017-Sep-21 02:00N 37°26' E 024°57'0 0.0
2017-Sep-21 01:30N 37°26' E 024°57'0 0.0
2017-Sep-21 01:00N 37°26' E 024°57'0 0.0
2017-Sep-21 00:29N 37°26' E 024°57'0 0.0
2017-Sep-21 00:00N 37°26' E 024°57'0 0.0
2017-Sep-20 23:30N 37°26' E 024°57'0 0.0
2017-Sep-20 23:00N 37°26' E 024°57'0 0.0
2017-Sep-20 22:30N 37°26' E 024°57'0 0.0
2017-Sep-20 22:00N 37°26' E 024°57'0 0.0
2017-Sep-20 21:30N 37°26' E 024°57'0 0.0
2017-Sep-20 20:59N 37°26' E 024°57'0 0.0
2017-Sep-20 20:30N 37°26' E 024°57'0 0.0
2017-Sep-20 19:59N 37°26' E 024°57'0 0.0
2017-Sep-20 19:30N 37°26' E 024°57'0 0.0
2017-Sep-20 19:00N 37°26' E 024°57'0 0.0
2017-Sep-20 18:30N 37°26' E 024°57'0 0.0
2017-Sep-20 18:00N 37°26' E 024°57'0 0.0
2017-Sep-20 17:29N 37°26' E 024°57'0 0.0
2017-Sep-20 17:00N 37°26' E 024°57'0 0.0
2017-Sep-20 16:30N 37°26' E 024°57'0 0.0
2017-Sep-20 15:59N 37°26' E 024°57'0 0.5
2017-Sep-20 15:30N 37°26' E 024°57'5 9.6
2017-Sep-20 15:00N 37°26' E 025°03'9 9.4
2017-Sep-20 14:00N 37°24' E 025°14'0 0.1
2017-Sep-20 13:30N 37°24' E 025°14'0 0.0
2017-Sep-20 13:00N 37°24' E 025°14'0 0.0
2017-Sep-20 12:31N 37°24' E 025°14'3 6.5
2017-Sep-20 12:01N 37°27' E 025°17'2 3.8
2017-Sep-20 11:31N 37°27' E 025°20'0 0.0
2017-Sep-20 11:00N 37°27' E 025°20'0 0.0
2017-Sep-20 10:30N 37°27' E 025°20'0 0.0
2017-Sep-20 10:00N 37°27' E 025°20'0 0.0
2017-Sep-20 09:30N 37°27' E 025°20'0 0.0
2017-Sep-20 09:00N 37°27' E 025°20'0 0.0
2017-Sep-20 08:31N 37°27' E 025°20'0 0.0
2017-Sep-20 08:01N 37°27' E 025°20'0 0.0
2017-Sep-20 07:30N 37°27' E 025°20'0 0.0
2017-Sep-20 07:00N 37°27' E 025°20'0 0.0
2017-Sep-20 06:30N 37°27' E 025°20'0 0.0
2017-Sep-20 06:00N 37°27' E 025°20'0 0.0
2017-Sep-20 05:30N 37°27' E 025°20'0 0.0
2017-Sep-20 05:00N 37°27' E 025°20'0 0.0
2017-Sep-20 04:30N 37°27' E 025°20'0 0.0
2017-Sep-20 04:00N 37°27' E 025°20'0 0.0
2017-Sep-20 03:30N 37°27' E 025°20'0 0.0
2017-Sep-20 03:00N 37°27' E 025°20'0 0.0
2017-Sep-20 02:30N 37°27' E 025°20'0 0.0
2017-Sep-20 02:00N 37°27' E 025°20'0 0.0
2017-Sep-20 01:30N 37°27' E 025°20'0 0.0
2017-Sep-20 01:00N 37°27' E 025°20'0 0.0
2017-Sep-20 00:30N 37°27' E 025°20'0 0.0
2017-Sep-20 00:00N 37°27' E 025°20'0 0.0
2017-Sep-19 23:30N 37°27' E 025°20'0 0.0
2017-Sep-19 23:00N 37°27' E 025°20'0 0.0
2017-Sep-19 22:30N 37°27' E 025°20'0 0.0
2017-Sep-19 22:00N 37°27' E 025°20'0 0.0
2017-Sep-19 21:30N 37°27' E 025°20'0 0.0
2017-Sep-19 21:00N 37°27' E 025°20'0 0.0
2017-Sep-19 20:30N 37°27' E 025°20'0 0.0
2017-Sep-19 20:01N 37°27' E 025°20'0 0.0
2017-Sep-19 19:29N 37°27' E 025°20'0 0.0
2017-Sep-19 19:01N 37°27' E 025°20'0 0.0
2017-Sep-19 18:30N 37°27' E 025°20'0 0.0
2017-Sep-19 18:01N 37°27' E 025°20'0 0.0
2017-Sep-19 17:30N 37°27' E 025°20'0 0.0
2017-Sep-19 17:00N 37°27' E 025°20'0 0.0
2017-Sep-19 16:30N 37°27' E 025°20'0 0.0
2017-Sep-19 16:00N 37°27' E 025°20'0 0.0
2017-Sep-19 15:30N 37°27' E 025°20'0 0.0
2017-Sep-19 15:00N 37°27' E 025°20'0 0.1
2017-Sep-19 14:31N 37°27' E 025°20'510.0
2017-Sep-19 14:00N 37°24' E 025°14'0 0.0
2017-Sep-19 13:30N 37°24' E 025°14'0 0.0
2017-Sep-19 13:00N 37°24' E 025°14'0 0.0
2017-Sep-19 12:30N 37°24' E 025°14'0 0.0
2017-Sep-19 12:01N 37°24' E 025°14'0 0.0
2017-Sep-19 11:31N 37°24' E 025°14'0 0.0
2017-Sep-19 11:00N 37°24' E 025°14'0 0.0
2017-Sep-19 10:30N 37°24' E 025°14'0 0.0
2017-Sep-19 10:00N 37°24' E 025°14'0 0.0
2017-Sep-19 09:30N 37°24' E 025°14'0 0.0
2017-Sep-19 09:00N 37°24' E 025°14'3 7.0
2017-Sep-19 08:30N 37°27' E 025°12'714.0
2017-Sep-19 08:00N 37°30' E 025°04'713.9
2017-Sep-19 07:30N 37°32' E 024°55'714.0
2017-Sep-19 07:00N 37°34' E 024°47'1814.0
2017-Sep-19 05:41N 37°41' E 024°25'  
2017-Sep-15 15:43N 37°56' E 023°41'0 0.0
2017-Sep-15 15:30N 37°56' E 023°41'0 0.0
2017-Sep-15 14:59N 37°56' E 023°41'0 0.0
2017-Sep-15 14:30N 37°56' E 023°41'0 0.0
2017-Sep-15 14:00N 37°56' E 023°41'0 0.0
2017-Sep-15 13:30N 37°56' E 023°41'0 0.0
2017-Sep-15 13:00N 37°56' E 023°41'0 0.0
2017-Sep-15 12:30N 37°56' E 023°41'0 0.0
2017-Sep-15 12:00N 37°56' E 023°41'0 0.0
2017-Sep-15 11:30N 37°56' E 023°41'0 0.0
2017-Sep-15 11:00N 37°56' E 023°41'0 0.0
2017-Sep-15 10:30N 37°56' E 023°41'0 0.0
2017-Sep-15 10:00N 37°56' E 023°41'0 0.0
2017-Sep-15 09:30N 37°56' E 023°41'0 0.0
2017-Sep-15 09:00N 37°56' E 023°41'0 0.0
2017-Sep-15 08:30N 37°56' E 023°41'0 0.0
2017-Sep-15 08:00N 37°56' E 023°41'0 0.0
2017-Sep-15 07:30N 37°56' E 023°41'0 0.0
2017-Sep-15 07:00N 37°56' E 023°41'0 0.0
2017-Sep-15 06:29N 37°56' E 023°41'0 0.0
2017-Sep-15 06:00N 37°56' E 023°41'0 0.0
2017-Sep-15 05:30N 37°56' E 023°41'0 0.0
2017-Sep-15 05:00N 37°56' E 023°41'0 0.0
2017-Sep-15 04:29N 37°56' E 023°41'0 0.0
2017-Sep-15 04:00N 37°56' E 023°41'0 0.0
2017-Sep-15 03:30N 37°56' E 023°41'0 0.0
2017-Sep-15 02:59N 37°56' E 023°41'0 0.0
2017-Sep-15 02:30N 37°56' E 023°41'0 0.0
2017-Sep-15 02:00N 37°56' E 023°41'0 0.0
2017-Sep-15 01:30N 37°56' E 023°41'0 0.0
2017-Sep-15 00:59N 37°56' E 023°41'0 0.0
2017-Sep-15 00:30N 37°56' E 023°41'0 0.0
2017-Sep-15 00:00N 37°56' E 023°41'0 0.0
2017-Sep-14 23:30N 37°56' E 023°41'0 0.0
2017-Sep-14 23:00N 37°56' E 023°41'0 0.0
2017-Sep-14 22:30N 37°56' E 023°41'0 0.0
2017-Sep-14 22:00N 37°56' E 023°41'0 0.0
2017-Sep-14 21:30N 37°56' E 023°41'0 0.0
2017-Sep-14 21:00N 37°56' E 023°41'0 0.0
2017-Sep-14 20:30N 37°56' E 023°41'0 0.0
2017-Sep-14 20:00N 37°56' E 023°41'0 0.0
2017-Sep-14 19:30N 37°56' E 023°41'  
Track history (hours):
 
Tides and Currents Weather Stations Pressure Air Temp Water Temp Dewpoint Dewpoint Depression Visibility Wind Speed Wind Dir Waves Ship Positions

Lady Dee

Last reported at 2017-Sep-24 19:00 UTC. Time now 2017-Sep-24 19:30 UTC.
Position N 37°56' E 023°41'.

Length 47 m; draft 3.1 m.

Type: Pleasure craft. MMSI: 244814000.

Date/timePositionNaut miles runAvg speedWind from/ knotsBaromVisibWave heightAir tempDewpointWater temp
2017-Sep-24 19:00N 37°56' E 023°41'0 0.0
2017-Sep-24 18:31N 37°56' E 023°41'0 0.0
2017-Sep-24 18:01N 37°56' E 023°41'0 0.0
2017-Sep-24 17:31N 37°56' E 023°41'0 0.0
2017-Sep-24 17:00N 37°56' E 023°41'0 0.0
2017-Sep-24 16:30N 37°56' E 023°41'0 0.0
2017-Sep-24 16:00N 37°56' E 023°41'0 0.0
2017-Sep-24 15:30N 37°56' E 023°41'0 0.0
2017-Sep-24 15:01N 37°56' E 023°41'0 0.0
2017-Sep-24 14:30N 37°56' E 023°41'0 0.0
2017-Sep-24 14:00N 37°56' E 023°41'0 0.0
2017-Sep-24 13:31N 37°56' E 023°41'0 0.0
2017-Sep-24 13:00N 37°56' E 023°41'2 3.7
2017-Sep-24 12:30N 37°55' E 023°39'612.9
2017-Sep-24 12:01N 37°51' E 023°32'714.0
2017-Sep-24 11:31N 37°47' E 023°26'713.8
2017-Sep-24 11:00N 37°42' E 023°19'1 1.2
2017-Sep-24 10:07N 37°41' E 023°19'0 0.0
2017-Sep-24 09:51N 37°41' E 023°19'0 0.0
2017-Sep-24 09:22N 37°41' E 023°19'0 0.0
2017-Sep-24 08:35N 37°41' E 023°19'0 0.0
2017-Sep-24 08:29N 37°41' E 023°19'0 0.1
2017-Sep-24 07:54N 37°41' E 023°19'512.2
2017-Sep-24 07:30N 37°38' E 023°25'713.5
2017-Sep-24 07:01N 37°32' E 023°25'2 3.8
2017-Sep-24 06:29N 37°30' E 023°27'  
2017-Sep-21 06:05N 37°20' E 024°45'113.7
2017-Sep-21 06:01N 37°21' E 024°46'713.8
2017-Sep-21 05:31N 37°22' E 024°55'5 9.3
2017-Sep-21 05:00N 37°26' E 024°57'0 0.5
2017-Sep-21 04:30N 37°26' E 024°57'0 0.0
2017-Sep-21 04:00N 37°26' E 024°57'0 0.0
2017-Sep-21 03:27N 37°26' E 024°57'0 0.0
2017-Sep-21 03:00N 37°26' E 024°57'0 0.0
2017-Sep-21 02:30N 37°26' E 024°57'0 0.0
2017-Sep-21 02:00N 37°26' E 024°57'0 0.0
2017-Sep-21 01:30N 37°26' E 024°57'0 0.0
2017-Sep-21 01:00N 37°26' E 024°57'0 0.0
2017-Sep-21 00:29N 37°26' E 024°57'0 0.0
2017-Sep-21 00:00N 37°26' E 024°57'0 0.0
2017-Sep-20 23:30N 37°26' E 024°57'0 0.0
2017-Sep-20 23:00N 37°26' E 024°57'0 0.0
2017-Sep-20 22:30N 37°26' E 024°57'0 0.0
2017-Sep-20 22:00N 37°26' E 024°57'0 0.0
2017-Sep-20 21:30N 37°26' E 024°57'0 0.0
2017-Sep-20 20:59N 37°26' E 024°57'0 0.0
2017-Sep-20 20:30N 37°26' E 024°57'0 0.0
2017-Sep-20 19:59N 37°26' E 024°57'0 0.0
2017-Sep-20 19:30N 37°26' E 024°57'0 0.0
2017-Sep-20 19:00N 37°26' E 024°57'0 0.0
2017-Sep-20 18:30N 37°26' E 024°57'0 0.0
2017-Sep-20 18:00N 37°26' E 024°57'0 0.0
2017-Sep-20 17:29N 37°26' E 024°57'0 0.0
2017-Sep-20 17:00N 37°26' E 024°57'0 0.0
2017-Sep-20 16:30N 37°26' E 024°57'0 0.0
2017-Sep-20 15:59N 37°26' E 024°57'0 0.5
2017-Sep-20 15:30N 37°26' E 024°57'5 9.6
2017-Sep-20 15:00N 37°26' E 025°03'9 9.4
2017-Sep-20 14:00N 37°24' E 025°14'0 0.1
2017-Sep-20 13:30N 37°24' E 025°14'0 0.0
2017-Sep-20 13:00N 37°24' E 025°14'0 0.0
2017-Sep-20 12:31N 37°24' E 025°14'3 6.5
2017-Sep-20 12:01N 37°27' E 025°17'2 3.8
2017-Sep-20 11:31N 37°27' E 025°20'0 0.0
2017-Sep-20 11:00N 37°27' E 025°20'0 0.0
2017-Sep-20 10:30N 37°27' E 025°20'0 0.0
2017-Sep-20 10:00N 37°27' E 025°20'0 0.0
2017-Sep-20 09:30N 37°27' E 025°20'0 0.0
2017-Sep-20 09:00N 37°27' E 025°20'0 0.0
2017-Sep-20 08:31N 37°27' E 025°20'0 0.0
2017-Sep-20 08:01N 37°27' E 025°20'0 0.0
2017-Sep-20 07:30N 37°27' E 025°20'0 0.0
2017-Sep-20 07:00N 37°27' E 025°20'0 0.0
2017-Sep-20 06:30N 37°27' E 025°20'0 0.0
2017-Sep-20 06:00N 37°27' E 025°20'0 0.0
2017-Sep-20 05:30N 37°27' E 025°20'0 0.0
2017-Sep-20 05:00N 37°27' E 025°20'0 0.0
2017-Sep-20 04:30N 37°27' E 025°20'0 0.0
2017-Sep-20 04:00N 37°27' E 025°20'0 0.0
2017-Sep-20 03:30N 37°27' E 025°20'0 0.0
2017-Sep-20 03:00N 37°27' E 025°20'0 0.0
2017-Sep-20 02:30N 37°27' E 025°20'0 0.0
2017-Sep-20 02:00N 37°27' E 025°20'0 0.0
2017-Sep-20 01:30N 37°27' E 025°20'0 0.0
2017-Sep-20 01:00N 37°27' E 025°20'0 0.0
2017-Sep-20 00:30N 37°27' E 025°20'0 0.0
2017-Sep-20 00:00N 37°27' E 025°20'0 0.0
2017-Sep-19 23:30N 37°27' E 025°20'0 0.0
2017-Sep-19 23:00N 37°27' E 025°20'0 0.0
2017-Sep-19 22:30N 37°27' E 025°20'0 0.0
2017-Sep-19 22:00N 37°27' E 025°20'0 0.0
2017-Sep-19 21:30N 37°27' E 025°20'0 0.0
2017-Sep-19 21:00N 37°27' E 025°20'0 0.0
2017-Sep-19 20:30N 37°27' E 025°20'0 0.0
2017-Sep-19 20:01N 37°27' E 025°20'0 0.0
2017-Sep-19 19:29N 37°27' E 025°20'0 0.0
2017-Sep-19 19:01N 37°27' E 025°20'0 0.0
2017-Sep-19 18:30N 37°27' E 025°20'0 0.0
2017-Sep-19 18:01N 37°27' E 025°20'0 0.0
2017-Sep-19 17:30N 37°27' E 025°20'0 0.0
2017-Sep-19 17:00N 37°27' E 025°20'0 0.0
2017-Sep-19 16:30N 37°27' E 025°20'0 0.0
2017-Sep-19 16:00N 37°27' E 025°20'0 0.0
2017-Sep-19 15:30N 37°27' E 025°20'0 0.0
2017-Sep-19 15:00N 37°27' E 025°20'0 0.1
2017-Sep-19 14:31N 37°27' E 025°20'510.0
2017-Sep-19 14:00N 37°24' E 025°14'0 0.0
2017-Sep-19 13:30N 37°24' E 025°14'0 0.0
2017-Sep-19 13:00N 37°24' E 025°14'0 0.0
2017-Sep-19 12:30N 37°24' E 025°14'0 0.0
2017-Sep-19 12:01N 37°24' E 025°14'0 0.0
2017-Sep-19 11:31N 37°24' E 025°14'0 0.0
2017-Sep-19 11:00N 37°24' E 025°14'0 0.0
2017-Sep-19 10:30N 37°24' E 025°14'0 0.0
2017-Sep-19 10:00N 37°24' E 025°14'0 0.0
2017-Sep-19 09:30N 37°24' E 025°14'0 0.0
2017-Sep-19 09:00N 37°24' E 025°14'3 7.0
2017-Sep-19 08:30N 37°27' E 025°12'714.0
2017-Sep-19 08:00N 37°30' E 025°04'713.9
2017-Sep-19 07:30N 37°32' E 024°55'714.0
2017-Sep-19 07:00N 37°34' E 024°47'1814.0
2017-Sep-19 05:41N 37°41' E 024°25'  
2017-Sep-15 15:43N 37°56' E 023°41'0 0.0
2017-Sep-15 15:30N 37°56' E 023°41'0 0.0
2017-Sep-15 14:59N 37°56' E 023°41'0 0.0
2017-Sep-15 14:30N 37°56' E 023°41'0 0.0
2017-Sep-15 14:00N 37°56' E 023°41'0 0.0
2017-Sep-15 13:30N 37°56' E 023°41'0 0.0
2017-Sep-15 13:00N 37°56' E 023°41'0 0.0
2017-Sep-15 12:30N 37°56' E 023°41'0 0.0
2017-Sep-15 12:00N 37°56' E 023°41'0 0.0
2017-Sep-15 11:30N 37°56' E 023°41'0 0.0
2017-Sep-15 11:00N 37°56' E 023°41'0 0.0
2017-Sep-15 10:30N 37°56' E 023°41'0 0.0
2017-Sep-15 10:00N 37°56' E 023°41'0 0.0
2017-Sep-15 09:30N 37°56' E 023°41'0 0.0
2017-Sep-15 09:00N 37°56' E 023°41'0 0.0
2017-Sep-15 08:30N 37°56' E 023°41'0 0.0
2017-Sep-15 08:00N 37°56' E 023°41'0 0.0
2017-Sep-15 07:30N 37°56' E 023°41'0 0.0
2017-Sep-15 07:00N 37°56' E 023°41'0 0.0
2017-Sep-15 06:29N 37°56' E 023°41'0 0.0
2017-Sep-15 06:00N 37°56' E 023°41'0 0.0
2017-Sep-15 05:30N 37°56' E 023°41'0 0.0
2017-Sep-15 05:00N 37°56' E 023°41'0 0.0
2017-Sep-15 04:29N 37°56' E 023°41'0 0.0
2017-Sep-15 04:00N 37°56' E 023°41'0 0.0
2017-Sep-15 03:30N 37°56' E 023°41'0 0.0
2017-Sep-15 02:59N 37°56' E 023°41'0 0.0
2017-Sep-15 02:30N 37°56' E 023°41'0 0.0
2017-Sep-15 02:00N 37°56' E 023°41'0 0.0
2017-Sep-15 01:30N 37°56' E 023°41'0 0.0
2017-Sep-15 00:59N 37°56' E 023°41'0 0.0
2017-Sep-15 00:30N 37°56' E 023°41'0 0.0
2017-Sep-15 00:00N 37°56' E 023°41'0 0.0
2017-Sep-14 23:30N 37°56' E 023°41'0 0.0
2017-Sep-14 23:00N 37°56' E 023°41'0 0.0
2017-Sep-14 22:30N 37°56' E 023°41'0 0.0
2017-Sep-14 22:00N 37°56' E 023°41'0 0.0
2017-Sep-14 21:30N 37°56' E 023°41'0 0.0
2017-Sep-14 21:00N 37°56' E 023°41'0 0.0
2017-Sep-14 20:30N 37°56' E 023°41'0 0.0
2017-Sep-14 20:00N 37°56' E 023°41'0 0.0
2017-Sep-14 19:30N 37°56' E 023°41'  

Dump ship's entire track history